sensor_id;sensor_type;location;lat;lon;timestamp;P1;durP1;ratioP1;P2;durP2;ratioP2
74660;SDS011;63191;39.566;2.654;2022-09-20T00:01:17;4.30;;;1.20;;
74660;SDS011;63191;39.566;2.654;2022-09-20T00:03:53;4.20;;;1.20;;
74660;SDS011;63191;39.566;2.654;2022-09-20T00:06:23;6.00;;;1.40;;
74660;SDS011;63191;39.566;2.654;2022-09-20T00:08:52;5.20;;;1.40;;
74660;SDS011;63191;39.566;2.654;2022-09-20T00:11:23;4.50;;;1.20;;
74660;SDS011;63191;39.566;2.654;2022-09-20T00:14:00;4.70;;;1.30;;
74660;SDS011;63191;39.566;2.654;2022-09-20T00:16:33;6.30;;;1.40;;
74660;SDS011;63191;39.566;2.654;2022-09-20T00:19:01;7.70;;;1.30;;
74660;SDS011;63191;39.566;2.654;2022-09-20T00:21:31;4.40;;;1.20;;
74660;SDS011;63191;39.566;2.654;2022-09-20T00:23:57;5.20;;;1.50;;
74660;SDS011;63191;39.566;2.654;2022-09-20T00:26:25;7.10;;;1.30;;
74660;SDS011;63191;39.566;2.654;2022-09-20T00:28:52;6.10;;;1.40;;
74660;SDS011;63191;39.566;2.654;2022-09-20T00:31:18;4.00;;;1.00;;
74660;SDS011;63191;39.566;2.654;2022-09-20T00:33:44;6.40;;;1.40;;
74660;SDS011;63191;39.566;2.654;2022-09-20T00:36:29;4.10;;;1.20;;
74660;SDS011;63191;39.566;2.654;2022-09-20T00:38:56;5.10;;;1.30;;
74660;SDS011;63191;39.566;2.654;2022-09-20T00:41:24;5.90;;;1.10;;
74660;SDS011;63191;39.566;2.654;2022-09-20T00:43:50;6.30;;;1.30;;
74660;SDS011;63191;39.566;2.654;2022-09-20T00:46:34;4.40;;;1.20;;
74660;SDS011;63191;39.566;2.654;2022-09-20T00:49:24;4.50;;;1.20;;
74660;SDS011;63191;39.566;2.654;2022-09-20T00:51:55;6.20;;;1.40;;
74660;SDS011;63191;39.566;2.654;2022-09-20T00:54:26;5.70;;;1.50;;
74660;SDS011;63191;39.566;2.654;2022-09-20T00:56:53;5.50;;;1.40;;
74660;SDS011;63191;39.566;2.654;2022-09-20T00:59:22;5.30;;;1.20;;
74660;SDS011;63191;39.566;2.654;2022-09-20T01:04:47;7.20;;;1.30;;
74660;SDS011;63191;39.566;2.654;2022-09-20T01:07:15;5.00;;;1.30;;
74660;SDS011;63191;39.566;2.654;2022-09-20T01:09:43;5.20;;;1.10;;
74660;SDS011;63191;39.566;2.654;2022-09-20T01:12:12;5.10;;;1.10;;
74660;SDS011;63191;39.566;2.654;2022-09-20T01:14:41;4.10;;;1.10;;
74660;SDS011;63191;39.566;2.654;2022-09-20T01:17:09;5.60;;;1.40;;
74660;SDS011;63191;39.566;2.654;2022-09-20T01:19:41;4.50;;;1.20;;
74660;SDS011;63191;39.566;2.654;2022-09-20T01:28:34;5.90;;;1.20;;
74660;SDS011;63191;39.566;2.654;2022-09-20T01:31:33;5.90;;;1.50;;
74660;SDS011;63191;39.566;2.654;2022-09-20T01:34:10;5.60;;;1.50;;
74660;SDS011;63191;39.566;2.654;2022-09-20T01:36:53;7.50;;;1.20;;
74660;SDS011;63191;39.566;2.654;2022-09-20T01:42:16;5.50;;;1.20;;
74660;SDS011;63191;39.566;2.654;2022-09-20T01:48:16;4.30;;;1.00;;
74660;SDS011;63191;39.566;2.654;2022-09-20T01:51:20;6.70;;;1.30;;
74660;SDS011;63191;39.566;2.654;2022-09-20T01:57:33;5.00;;;1.10;;
74660;SDS011;63191;39.566;2.654;2022-09-20T02:03:23;4.60;;;1.20;;
74660;SDS011;63191;39.566;2.654;2022-09-20T02:11:50;4.70;;;1.10;;
74660;SDS011;63191;39.566;2.654;2022-09-20T02:22:51;5.00;;;1.30;;
74660;SDS011;63191;39.566;2.654;2022-09-20T02:26:21;5.20;;;1.30;;
74660;SDS011;63191;39.566;2.654;2022-09-20T02:42:46;5.50;;;1.30;;
74660;SDS011;63191;39.566;2.654;2022-09-20T02:48:05;6.30;;;1.40;;
74660;SDS011;63191;39.566;2.654;2022-09-20T02:50:54;6.20;;;1.30;;
74660;SDS011;63191;39.566;2.654;2022-09-20T02:53:42;5.10;;;1.20;;
74660;SDS011;63191;39.566;2.654;2022-09-20T02:56:53;4.20;;;1.00;;
74660;SDS011;63191;39.566;2.654;2022-09-20T03:02:18;5.40;;;1.10;;
74660;SDS011;63191;39.566;2.654;2022-09-20T03:19:59;5.90;;;1.70;;
74660;SDS011;63191;39.566;2.654;2022-09-20T03:47:02;6.80;;;1.50;;
74660;SDS011;63191;39.566;2.654;2022-09-20T04:04:15;5.60;;;1.40;;
74660;SDS011;63191;39.566;2.654;2022-09-20T04:13:24;5.20;;;1.40;;
74660;SDS011;63191;39.566;2.654;2022-09-20T04:21:27;6.00;;;1.70;;
74660;SDS011;63191;39.566;2.654;2022-09-20T04:24:06;7.80;;;1.90;;
74660;SDS011;63191;39.566;2.654;2022-09-20T04:26:39;7.20;;;2.10;;
74660;SDS011;63191;39.566;2.654;2022-09-20T04:29:46;6.70;;;2.00;;
74660;SDS011;63191;39.566;2.654;2022-09-20T04:32:41;6.70;;;1.60;;
74660;SDS011;63191;39.566;2.654;2022-09-20T04:38:21;6.80;;;1.90;;
74660;SDS011;63191;39.566;2.654;2022-09-20T04:44:19;6.90;;;1.90;;
74660;SDS011;63191;39.566;2.654;2022-09-20T04:58:38;5.80;;;1.80;;
74660;SDS011;63191;39.566;2.654;2022-09-20T05:04:00;7.40;;;1.80;;
74660;SDS011;63191;39.566;2.654;2022-09-20T05:18:06;5.20;;;1.60;;
74660;SDS011;63191;39.566;2.654;2022-09-20T05:23:56;5.00;;;1.30;;
74660;SDS011;63191;39.566;2.654;2022-09-20T05:29:48;5.90;;;1.60;;
74660;SDS011;63191;39.566;2.654;2022-09-20T05:32:28;6.20;;;1.60;;
74660;SDS011;63191;39.566;2.654;2022-09-20T05:35:11;5.70;;;1.40;;
74660;SDS011;63191;39.566;2.654;2022-09-20T05:38:42;5.40;;;1.50;;
74660;SDS011;63191;39.566;2.654;2022-09-20T05:47:19;7.70;;;1.60;;
74660;SDS011;63191;39.566;2.654;2022-09-20T05:52:57;7.20;;;1.60;;
74660;SDS011;63191;39.566;2.654;2022-09-20T06:02:12;11.20;;;2.10;;
74660;SDS011;63191;39.566;2.654;2022-09-20T06:10:52;9.80;;;3.50;;
74660;SDS011;63191;39.566;2.654;2022-09-20T06:22:26;11.00;;;4.90;;
74660;SDS011;63191;39.566;2.654;2022-09-20T06:30:04;11.80;;;6.30;;
74660;SDS011;63191;39.566;2.654;2022-09-20T06:32:32;10.10;;;4.90;;
74660;SDS011;63191;39.566;2.654;2022-09-20T06:34:59;8.00;;;3.00;;
74660;SDS011;63191;39.566;2.654;2022-09-20T06:37:38;9.00;;;2.60;;
74660;SDS011;63191;39.566;2.654;2022-09-20T06:40:48;9.70;;;3.10;;
74660;SDS011;63191;39.566;2.654;2022-09-20T06:43:37;9.30;;;3.00;;
74660;SDS011;63191;39.566;2.654;2022-09-20T06:46:06;8.10;;;3.20;;
74660;SDS011;63191;39.566;2.654;2022-09-20T06:48:32;9.30;;;3.80;;
74660;SDS011;63191;39.566;2.654;2022-09-20T06:50:57;13.40;;;4.00;;
74660;SDS011;63191;39.566;2.654;2022-09-20T06:53:28;9.90;;;3.70;;
74660;SDS011;63191;39.566;2.654;2022-09-20T06:55:56;12.20;;;4.50;;
74660;SDS011;63191;39.566;2.654;2022-09-20T06:58:23;12.50;;;4.10;;
74660;SDS011;63191;39.566;2.654;2022-09-20T07:00:51;9.00;;;3.90;;
74660;SDS011;63191;39.566;2.654;2022-09-20T07:03:17;9.70;;;4.30;;
74660;SDS011;63191;39.566;2.654;2022-09-20T07:05:44;10.90;;;4.80;;
74660;SDS011;63191;39.566;2.654;2022-09-20T07:08:10;15.20;;;5.30;;
74660;SDS011;63191;39.566;2.654;2022-09-20T07:10:37;8.40;;;4.70;;
74660;SDS011;63191;39.566;2.654;2022-09-20T07:13:03;9.80;;;5.40;;
74660;SDS011;63191;39.566;2.654;2022-09-20T07:15:31;11.00;;;5.80;;
74660;SDS011;63191;39.566;2.654;2022-09-20T07:17:58;10.50;;;5.90;;
74660;SDS011;63191;39.566;2.654;2022-09-20T07:20:27;10.40;;;5.20;;
74660;SDS011;63191;39.566;2.654;2022-09-20T07:22:52;9.80;;;5.60;;
74660;SDS011;63191;39.566;2.654;2022-09-20T07:25:19;10.70;;;6.30;;
74660;SDS011;63191;39.566;2.654;2022-09-20T07:27:48;9.90;;;5.80;;
74660;SDS011;63191;39.566;2.654;2022-09-20T07:30:16;11.60;;;6.40;;
74660;SDS011;63191;39.566;2.654;2022-09-20T07:32:42;10.40;;;7.10;;
74660;SDS011;63191;39.566;2.654;2022-09-20T07:35:09;11.80;;;6.90;;
74660;SDS011;63191;39.566;2.654;2022-09-20T07:37:36;9.20;;;7.30;;
74660;SDS011;63191;39.566;2.654;2022-09-20T07:40:06;9.60;;;7.30;;
74660;SDS011;63191;39.566;2.654;2022-09-20T07:42:35;8.20;;;5.60;;
74660;SDS011;63191;39.566;2.654;2022-09-20T07:45:01;9.10;;;5.40;;
74660;SDS011;63191;39.566;2.654;2022-09-20T07:47:31;9.80;;;5.60;;
74660;SDS011;63191;39.566;2.654;2022-09-20T07:49:57;9.70;;;5.20;;
74660;SDS011;63191;39.566;2.654;2022-09-20T07:52:23;8.20;;;4.60;;
74660;SDS011;63191;39.566;2.654;2022-09-20T07:54:49;12.30;;;5.10;;
74660;SDS011;63191;39.566;2.654;2022-09-20T07:57:15;11.80;;;4.00;;
74660;SDS011;63191;39.566;2.654;2022-09-20T07:59:41;11.80;;;3.90;;
74660;SDS011;63191;39.566;2.654;2022-09-20T08:02:13;8.60;;;3.70;;
74660;SDS011;63191;39.566;2.654;2022-09-20T08:04:39;9.90;;;3.70;;
74660;SDS011;63191;39.566;2.654;2022-09-20T08:07:05;8.70;;;3.10;;
74660;SDS011;63191;39.566;2.654;2022-09-20T08:09:31;9.40;;;3.30;;
74660;SDS011;63191;39.566;2.654;2022-09-20T08:11:56;11.00;;;3.70;;
74660;SDS011;63191;39.566;2.654;2022-09-20T08:14:22;10.40;;;4.20;;
74660;SDS011;63191;39.566;2.654;2022-09-20T08:16:49;10.20;;;3.00;;
74660;SDS011;63191;39.566;2.654;2022-09-20T08:19:20;9.80;;;2.80;;
74660;SDS011;63191;39.566;2.654;2022-09-20T08:21:48;9.10;;;2.60;;
74660;SDS011;63191;39.566;2.654;2022-09-20T08:24:16;7.80;;;2.90;;
74660;SDS011;63191;39.566;2.654;2022-09-20T08:26:44;8.40;;;2.90;;
74660;SDS011;63191;39.566;2.654;2022-09-20T08:29:10;7.60;;;2.60;;
74660;SDS011;63191;39.566;2.654;2022-09-20T08:31:37;6.60;;;2.40;;
74660;SDS011;63191;39.566;2.654;2022-09-20T08:34:08;7.40;;;2.30;;
74660;SDS011;63191;39.566;2.654;2022-09-20T08:36:39;6.20;;;2.30;;
74660;SDS011;63191;39.566;2.654;2022-09-20T08:39:06;7.00;;;2.70;;
74660;SDS011;63191;39.566;2.654;2022-09-20T08:41:36;8.00;;;2.30;;
74660;SDS011;63191;39.566;2.654;2022-09-20T08:44:27;6.00;;;2.40;;
74660;SDS011;63191;39.566;2.654;2022-09-20T08:47:04;6.90;;;2.10;;
74660;SDS011;63191;39.566;2.654;2022-09-20T08:49:34;8.60;;;2.40;;
74660;SDS011;63191;39.566;2.654;2022-09-20T08:52:01;6.10;;;2.70;;
74660;SDS011;63191;39.566;2.654;2022-09-20T08:54:30;7.70;;;2.70;;
74660;SDS011;63191;39.566;2.654;2022-09-20T08:57:03;5.90;;;2.00;;
74660;SDS011;63191;39.566;2.654;2022-09-20T08:59:36;6.40;;;2.10;;
74660;SDS011;63191;39.566;2.654;2022-09-20T09:02:02;8.30;;;3.50;;
74660;SDS011;63191;39.566;2.654;2022-09-20T09:04:34;5.80;;;2.40;;
74660;SDS011;63191;39.566;2.654;2022-09-20T09:07:01;6.40;;;2.20;;
74660;SDS011;63191;39.566;2.654;2022-09-20T09:09:28;4.90;;;2.10;;
74660;SDS011;63191;39.566;2.654;2022-09-20T09:11:55;6.60;;;2.70;;
74660;SDS011;63191;39.566;2.654;2022-09-20T09:14:32;8.10;;;2.10;;
74660;SDS011;63191;39.566;2.654;2022-09-20T09:17:29;5.00;;;1.90;;
74660;SDS011;63191;39.566;2.654;2022-09-20T09:20:06;7.70;;;2.20;;
74660;SDS011;63191;39.566;2.654;2022-09-20T09:22:43;8.30;;;2.60;;
74660;SDS011;63191;39.566;2.654;2022-09-20T09:30:44;5.30;;;2.10;;
74660;SDS011;63191;39.566;2.654;2022-09-20T09:36:11;6.70;;;1.90;;
74660;SDS011;63191;39.566;2.654;2022-09-20T09:38:41;6.20;;;2.10;;
74660;SDS011;63191;39.566;2.654;2022-09-20T09:41:24;6.10;;;2.10;;
74660;SDS011;63191;39.566;2.654;2022-09-20T09:44:05;9.30;;;2.10;;
74660;SDS011;63191;39.566;2.654;2022-09-20T09:46:36;5.40;;;1.80;;
74660;SDS011;63191;39.566;2.654;2022-09-20T09:49:21;4.40;;;2.00;;
74660;SDS011;63191;39.566;2.654;2022-09-20T09:52:15;4.70;;;2.10;;
74660;SDS011;63191;39.566;2.654;2022-09-20T09:54:54;4.90;;;1.90;;
74660;SDS011;63191;39.566;2.654;2022-09-20T09:58:06;6.20;;;1.90;;
74660;SDS011;63191;39.566;2.654;2022-09-20T10:00:48;5.90;;;2.10;;
74660;SDS011;63191;39.566;2.654;2022-09-20T10:03:33;4.40;;;1.80;;
74660;SDS011;63191;39.566;2.654;2022-09-20T10:06:25;4.10;;;1.50;;
74660;SDS011;63191;39.566;2.654;2022-09-20T10:15:17;4.00;;;1.80;;
74660;SDS011;63191;39.566;2.654;2022-09-20T10:30:02;5.50;;;2.00;;
74660;SDS011;63191;39.566;2.654;2022-09-20T10:35:24;4.20;;;1.80;;
74660;SDS011;63191;39.566;2.654;2022-09-20T10:38:10;4.30;;;2.00;;
74660;SDS011;63191;39.566;2.654;2022-09-20T10:44:04;5.60;;;2.00;;
74660;SDS011;63191;39.566;2.654;2022-09-20T10:55:25;5.10;;;1.50;;
74660;SDS011;63191;39.566;2.654;2022-09-20T11:07:40;4.80;;;2.10;;
74660;SDS011;63191;39.566;2.654;2022-09-20T11:10:20;4.70;;;2.30;;
74660;SDS011;63191;39.566;2.654;2022-09-20T11:13:34;4.90;;;2.90;;
74660;SDS011;63191;39.566;2.654;2022-09-20T11:16:15;5.10;;;3.50;;
74660;SDS011;63191;39.566;2.654;2022-09-20T11:18:56;6.60;;;4.30;;
74660;SDS011;63191;39.566;2.654;2022-09-20T11:21:32;7.00;;;4.70;;
74660;SDS011;63191;39.566;2.654;2022-09-20T11:27:05;7.10;;;6.40;;
74660;SDS011;63191;39.566;2.654;2022-09-20T11:29:43;7.80;;;7.10;;
74660;SDS011;63191;39.566;2.654;2022-09-20T11:37:39;9.00;;;8.10;;
74660;SDS011;63191;39.566;2.654;2022-09-20T11:40:30;10.00;;;9.00;;
74660;SDS011;63191;39.566;2.654;2022-09-20T11:42:59;10.10;;;9.30;;
74660;SDS011;63191;39.566;2.654;2022-09-20T11:45:28;10.60;;;9.80;;
74660;SDS011;63191;39.566;2.654;2022-09-20T11:48:03;10.30;;;9.40;;
74660;SDS011;63191;39.566;2.654;2022-09-20T11:51:03;9.80;;;9.00;;
74660;SDS011;63191;39.566;2.654;2022-09-20T11:56:21;7.90;;;7.20;;
74660;SDS011;63191;39.566;2.654;2022-09-20T12:01:27;6.30;;;4.70;;
74660;SDS011;63191;39.566;2.654;2022-09-20T12:04:02;6.00;;;4.00;;
74660;SDS011;63191;39.566;2.654;2022-09-20T12:06:34;5.80;;;3.70;;
74660;SDS011;63191;39.566;2.654;2022-09-20T12:09:24;5.00;;;3.20;;
74660;SDS011;63191;39.566;2.654;2022-09-20T12:11:54;4.90;;;2.80;;
74660;SDS011;63191;39.566;2.654;2022-09-20T12:14:25;7.00;;;2.50;;
74660;SDS011;63191;39.566;2.654;2022-09-20T12:16:53;5.20;;;2.60;;
74660;SDS011;63191;39.566;2.654;2022-09-20T12:26:59;4.90;;;2.00;;
74660;SDS011;63191;39.566;2.654;2022-09-20T12:31:55;7.00;;;2.30;;
74660;SDS011;63191;39.566;2.654;2022-09-20T12:41:55;4.50;;;1.60;;
74660;SDS011;63191;39.566;2.654;2022-09-20T12:44:56;4.40;;;1.50;;
74660;SDS011;63191;39.566;2.654;2022-09-20T12:47:28;5.20;;;1.90;;
74660;SDS011;63191;39.566;2.654;2022-09-20T12:50:01;5.70;;;1.80;;
74660;SDS011;63191;39.566;2.654;2022-09-20T12:52:51;6.00;;;1.70;;
74660;SDS011;63191;39.566;2.654;2022-09-20T13:03:42;5.60;;;1.70;;
74660;SDS011;63191;39.566;2.654;2022-09-20T13:09:05;5.00;;;2.00;;
74660;SDS011;63191;39.566;2.654;2022-09-20T13:11:55;5.30;;;1.70;;
74660;SDS011;63191;39.566;2.654;2022-09-20T13:14:30;4.30;;;1.50;;
74660;SDS011;63191;39.566;2.654;2022-09-20T13:19:43;4.70;;;1.60;;
74660;SDS011;63191;39.566;2.654;2022-09-20T13:24:47;5.70;;;1.70;;
74660;SDS011;63191;39.566;2.654;2022-09-20T13:29:47;5.70;;;1.60;;
74660;SDS011;63191;39.566;2.654;2022-09-20T13:37:35;5.90;;;2.20;;
74660;SDS011;63191;39.566;2.654;2022-09-20T13:43:14;8.60;;;2.20;;
74660;SDS011;63191;39.566;2.654;2022-09-20T13:45:59;6.60;;;1.80;;
74660;SDS011;63191;39.566;2.654;2022-09-20T13:48:32;7.00;;;1.80;;
74660;SDS011;63191;39.566;2.654;2022-09-20T13:50:57;6.00;;;1.70;;
74660;SDS011;63191;39.566;2.654;2022-09-20T13:53:26;5.60;;;1.70;;
74660;SDS011;63191;39.566;2.654;2022-09-20T13:55:53;7.00;;;1.80;;
74660;SDS011;63191;39.566;2.654;2022-09-20T13:58:24;7.20;;;1.80;;
74660;SDS011;63191;39.566;2.654;2022-09-20T14:01:04;6.10;;;1.80;;
74660;SDS011;63191;39.566;2.654;2022-09-20T14:03:33;5.60;;;1.80;;
74660;SDS011;63191;39.566;2.654;2022-09-20T14:06:03;4.10;;;1.60;;
74660;SDS011;63191;39.566;2.654;2022-09-20T14:08:36;4.20;;;1.50;;
74660;SDS011;63191;39.566;2.654;2022-09-20T14:13:41;5.90;;;1.70;;
74660;SDS011;63191;39.566;2.654;2022-09-20T14:16:10;4.80;;;1.70;;
74660;SDS011;63191;39.566;2.654;2022-09-20T14:18:39;6.10;;;1.90;;
74660;SDS011;63191;39.566;2.654;2022-09-20T14:21:09;6.40;;;2.30;;
74660;SDS011;63191;39.566;2.654;2022-09-20T14:24:04;4.30;;;1.70;;
74660;SDS011;63191;39.566;2.654;2022-09-20T14:27:13;5.00;;;1.80;;
74660;SDS011;63191;39.566;2.654;2022-09-20T14:29:53;5.00;;;1.80;;
74660;SDS011;63191;39.566;2.654;2022-09-20T14:32:32;4.00;;;1.60;;
74660;SDS011;63191;39.566;2.654;2022-09-20T14:35:19;4.70;;;1.80;;
74660;SDS011;63191;39.566;2.654;2022-09-20T14:38:06;6.40;;;2.00;;
74660;SDS011;63191;39.566;2.654;2022-09-20T14:40:45;3.80;;;1.80;;
74660;SDS011;63191;39.566;2.654;2022-09-20T14:43:31;6.50;;;1.70;;
74660;SDS011;63191;39.566;2.654;2022-09-20T14:46:02;5.20;;;2.00;;
74660;SDS011;63191;39.566;2.654;2022-09-20T14:48:35;4.70;;;1.90;;
74660;SDS011;63191;39.566;2.654;2022-09-20T14:53:51;6.60;;;2.00;;
74660;SDS011;63191;39.566;2.654;2022-09-20T14:56:57;4.20;;;1.60;;
74660;SDS011;63191;39.566;2.654;2022-09-20T14:59:25;6.20;;;1.90;;
74660;SDS011;63191;39.566;2.654;2022-09-20T15:04:36;6.70;;;2.00;;
74660;SDS011;63191;39.566;2.654;2022-09-20T15:07:06;5.80;;;1.90;;
74660;SDS011;63191;39.566;2.654;2022-09-20T15:09:37;5.90;;;2.00;;
74660;SDS011;63191;39.566;2.654;2022-09-20T15:12:11;6.40;;;1.90;;
74660;SDS011;63191;39.566;2.654;2022-09-20T15:14:39;5.20;;;1.50;;
74660;SDS011;63191;39.566;2.654;2022-09-20T15:17:06;5.40;;;1.90;;
74660;SDS011;63191;39.566;2.654;2022-09-20T15:19:35;5.90;;;1.60;;
74660;SDS011;63191;39.566;2.654;2022-09-20T15:22:00;5.80;;;1.90;;
74660;SDS011;63191;39.566;2.654;2022-09-20T15:24:26;6.30;;;1.80;;
74660;SDS011;63191;39.566;2.654;2022-09-20T15:26:53;4.40;;;1.80;;
74660;SDS011;63191;39.566;2.654;2022-09-20T15:29:18;24.30;;;3.40;;
74660;SDS011;63191;39.566;2.654;2022-09-20T15:31:46;10.70;;;2.00;;
74660;SDS011;63191;39.566;2.654;2022-09-20T15:34:13;6.40;;;1.80;;
74660;SDS011;63191;39.566;2.654;2022-09-20T15:36:40;8.70;;;1.90;;
74660;SDS011;63191;39.566;2.654;2022-09-20T15:39:06;6.30;;;1.70;;
74660;SDS011;63191;39.566;2.654;2022-09-20T15:41:33;3.90;;;1.60;;
74660;SDS011;63191;39.566;2.654;2022-09-20T15:44:01;5.10;;;1.50;;
74660;SDS011;63191;39.566;2.654;2022-09-20T15:46:30;6.60;;;2.10;;
74660;SDS011;63191;39.566;2.654;2022-09-20T15:48:58;5.30;;;1.70;;
74660;SDS011;63191;39.566;2.654;2022-09-20T15:51:25;6.40;;;1.90;;
74660;SDS011;63191;39.566;2.654;2022-09-20T15:53:59;4.30;;;1.70;;
74660;SDS011;63191;39.566;2.654;2022-09-20T15:56:37;4.50;;;1.50;;
74660;SDS011;63191;39.566;2.654;2022-09-20T15:59:07;4.90;;;1.50;;
74660;SDS011;63191;39.566;2.654;2022-09-20T16:01:39;5.00;;;1.80;;
74660;SDS011;63191;39.566;2.654;2022-09-20T16:04:11;4.50;;;1.60;;
74660;SDS011;63191;39.566;2.654;2022-09-20T16:06:40;5.40;;;1.90;;
74660;SDS011;63191;39.566;2.654;2022-09-20T16:09:07;6.30;;;1.90;;
74660;SDS011;63191;39.566;2.654;2022-09-20T16:11:33;4.90;;;1.50;;
74660;SDS011;63191;39.566;2.654;2022-09-20T16:13:59;6.40;;;2.00;;
74660;SDS011;63191;39.566;2.654;2022-09-20T16:16:27;8.20;;;1.80;;
74660;SDS011;63191;39.566;2.654;2022-09-20T16:18:54;6.70;;;1.80;;
74660;SDS011;63191;39.566;2.654;2022-09-20T16:21:41;5.10;;;1.80;;
74660;SDS011;63191;39.566;2.654;2022-09-20T16:24:09;3.70;;;1.20;;
74660;SDS011;63191;39.566;2.654;2022-09-20T16:26:37;3.80;;;1.60;;
74660;SDS011;63191;39.566;2.654;2022-09-20T16:29:03;5.60;;;1.70;;
74660;SDS011;63191;39.566;2.654;2022-09-20T16:31:58;4.70;;;1.50;;
74660;SDS011;63191;39.566;2.654;2022-09-20T16:34:34;6.10;;;1.80;;
74660;SDS011;63191;39.566;2.654;2022-09-20T16:39:29;4.90;;;1.40;;
74660;SDS011;63191;39.566;2.654;2022-09-20T16:41:57;5.50;;;1.80;;
74660;SDS011;63191;39.566;2.654;2022-09-20T16:44:35;6.30;;;1.80;;
74660;SDS011;63191;39.566;2.654;2022-09-20T16:47:03;3.60;;;1.40;;
74660;SDS011;63191;39.566;2.654;2022-09-20T16:49:33;5.60;;;1.60;;
74660;SDS011;63191;39.566;2.654;2022-09-20T16:52:00;5.70;;;1.70;;
74660;SDS011;63191;39.566;2.654;2022-09-20T16:54:28;4.70;;;1.40;;
74660;SDS011;63191;39.566;2.654;2022-09-20T16:56:54;5.10;;;1.80;;
74660;SDS011;63191;39.566;2.654;2022-09-20T16:59:20;4.60;;;1.70;;
74660;SDS011;63191;39.566;2.654;2022-09-20T17:01:48;4.20;;;1.30;;
74660;SDS011;63191;39.566;2.654;2022-09-20T17:04:15;4.40;;;1.70;;
74660;SDS011;63191;39.566;2.654;2022-09-20T17:06:46;3.70;;;1.40;;
74660;SDS011;63191;39.566;2.654;2022-09-20T17:09:13;5.00;;;1.40;;
74660;SDS011;63191;39.566;2.654;2022-09-20T17:11:45;5.30;;;1.80;;
74660;SDS011;63191;39.566;2.654;2022-09-20T17:14:15;5.20;;;1.60;;
74660;SDS011;63191;39.566;2.654;2022-09-20T17:16:42;6.10;;;1.50;;
74660;SDS011;63191;39.566;2.654;2022-09-20T17:19:13;4.70;;;1.60;;
74660;SDS011;63191;39.566;2.654;2022-09-20T17:21:42;4.10;;;1.40;;
74660;SDS011;63191;39.566;2.654;2022-09-20T17:24:10;6.00;;;1.90;;
74660;SDS011;63191;39.566;2.654;2022-09-20T17:26:38;4.50;;;1.60;;
74660;SDS011;63191;39.566;2.654;2022-09-20T17:29:10;6.30;;;1.80;;
74660;SDS011;63191;39.566;2.654;2022-09-20T17:31:46;7.10;;;1.80;;
74660;SDS011;63191;39.566;2.654;2022-09-20T17:34:14;5.70;;;1.70;;
74660;SDS011;63191;39.566;2.654;2022-09-20T17:36:43;6.10;;;1.80;;
74660;SDS011;63191;39.566;2.654;2022-09-20T17:39:11;6.90;;;2.10;;
74660;SDS011;63191;39.566;2.654;2022-09-20T17:41:39;5.60;;;1.50;;
74660;SDS011;63191;39.566;2.654;2022-09-20T17:44:06;10.60;;;1.90;;
74660;SDS011;63191;39.566;2.654;2022-09-20T17:46:37;5.70;;;1.50;;
74660;SDS011;63191;39.566;2.654;2022-09-20T17:49:07;5.80;;;1.70;;
74660;SDS011;63191;39.566;2.654;2022-09-20T17:51:42;4.60;;;1.40;;
74660;SDS011;63191;39.566;2.654;2022-09-20T17:54:10;7.40;;;2.90;;
74660;SDS011;63191;39.566;2.654;2022-09-20T17:56:41;6.70;;;1.50;;
74660;SDS011;63191;39.566;2.654;2022-09-20T17:59:09;5.00;;;1.60;;
74660;SDS011;63191;39.566;2.654;2022-09-20T18:01:36;5.10;;;1.50;;
74660;SDS011;63191;39.566;2.654;2022-09-20T18:04:04;5.60;;;1.60;;
74660;SDS011;63191;39.566;2.654;2022-09-20T18:06:36;6.00;;;1.70;;
74660;SDS011;63191;39.566;2.654;2022-09-20T18:09:07;6.20;;;1.50;;
74660;SDS011;63191;39.566;2.654;2022-09-20T18:11:37;7.00;;;1.70;;
74660;SDS011;63191;39.566;2.654;2022-09-20T18:14:07;7.60;;;1.80;;
74660;SDS011;63191;39.566;2.654;2022-09-20T18:16:38;5.70;;;1.50;;
74660;SDS011;63191;39.566;2.654;2022-09-20T18:19:06;6.00;;;2.10;;
74660;SDS011;63191;39.566;2.654;2022-09-20T18:21:33;7.30;;;1.70;;
74660;SDS011;63191;39.566;2.654;2022-09-20T18:24:03;6.20;;;1.40;;
74660;SDS011;63191;39.566;2.654;2022-09-20T18:26:30;6.60;;;1.80;;
74660;SDS011;63191;39.566;2.654;2022-09-20T18:29:14;7.60;;;1.60;;
74660;SDS011;63191;39.566;2.654;2022-09-20T18:31:51;8.50;;;1.90;;
74660;SDS011;63191;39.566;2.654;2022-09-20T18:34:23;5.70;;;1.70;;
74660;SDS011;63191;39.566;2.654;2022-09-20T18:36:58;4.60;;;1.50;;
74660;SDS011;63191;39.566;2.654;2022-09-20T18:39:30;7.30;;;2.10;;
74660;SDS011;63191;39.566;2.654;2022-09-20T18:41:57;6.70;;;2.40;;
74660;SDS011;63191;39.566;2.654;2022-09-20T18:44:24;6.30;;;2.10;;
74660;SDS011;63191;39.566;2.654;2022-09-20T18:46:52;9.30;;;2.70;;
74660;SDS011;63191;39.566;2.654;2022-09-20T18:49:19;7.10;;;1.90;;
74660;SDS011;63191;39.566;2.654;2022-09-20T18:51:46;7.00;;;1.90;;
74660;SDS011;63191;39.566;2.654;2022-09-20T18:54:13;6.80;;;2.10;;
74660;SDS011;63191;39.566;2.654;2022-09-20T18:56:41;7.00;;;1.60;;
74660;SDS011;63191;39.566;2.654;2022-09-20T18:59:21;8.00;;;1.70;;
74660;SDS011;63191;39.566;2.654;2022-09-20T19:22:45;8.70;;;2.00;;
74660;SDS011;63191;39.566;2.654;2022-09-20T19:28:13;6.60;;;1.70;;
74660;SDS011;63191;39.566;2.654;2022-09-20T19:30:41;7.10;;;2.00;;
74660;SDS011;63191;39.566;2.654;2022-09-20T19:33:17;8.10;;;2.00;;
74660;SDS011;63191;39.566;2.654;2022-09-20T19:35:48;7.80;;;2.00;;
74660;SDS011;63191;39.566;2.654;2022-09-20T19:41:18;7.50;;;1.70;;
74660;SDS011;63191;39.566;2.654;2022-09-20T19:47:16;7.90;;;1.80;;
74660;SDS011;63191;39.566;2.654;2022-09-20T19:49:55;10.10;;;2.30;;
74660;SDS011;63191;39.566;2.654;2022-09-20T19:52:27;7.80;;;2.10;;
74660;SDS011;63191;39.566;2.654;2022-09-20T19:54:53;8.30;;;1.70;;
74660;SDS011;63191;39.566;2.654;2022-09-20T19:57:32;7.10;;;1.70;;
74660;SDS011;63191;39.566;2.654;2022-09-20T20:00:02;9.30;;;1.70;;
74660;SDS011;63191;39.566;2.654;2022-09-20T20:02:29;7.70;;;1.70;;
74660;SDS011;63191;39.566;2.654;2022-09-20T20:04:55;7.60;;;1.90;;
74660;SDS011;63191;39.566;2.654;2022-09-20T20:12:57;8.90;;;1.70;;
74660;SDS011;63191;39.566;2.654;2022-09-20T20:16:00;9.60;;;1.90;;
74660;SDS011;63191;39.566;2.654;2022-09-20T20:21:57;7.40;;;1.70;;
74660;SDS011;63191;39.566;2.654;2022-09-20T20:24:49;6.60;;;1.80;;
74660;SDS011;63191;39.566;2.654;2022-09-20T20:27:18;7.60;;;2.00;;
74660;SDS011;63191;39.566;2.654;2022-09-20T20:29:44;9.80;;;2.20;;
74660;SDS011;63191;39.566;2.654;2022-09-20T20:32:11;7.70;;;2.30;;
74660;SDS011;63191;39.566;2.654;2022-09-20T20:34:37;9.80;;;1.90;;
74660;SDS011;63191;39.566;2.654;2022-09-20T20:37:03;8.30;;;2.00;;
74660;SDS011;63191;39.566;2.654;2022-09-20T20:39:30;7.40;;;1.90;;
74660;SDS011;63191;39.566;2.654;2022-09-20T20:42:00;6.40;;;1.70;;
74660;SDS011;63191;39.566;2.654;2022-09-20T20:44:33;6.30;;;1.80;;
74660;SDS011;63191;39.566;2.654;2022-09-20T20:47:00;6.60;;;2.00;;
74660;SDS011;63191;39.566;2.654;2022-09-20T20:49:26;9.60;;;2.20;;
74660;SDS011;63191;39.566;2.654;2022-09-20T20:51:52;8.20;;;2.30;;
74660;SDS011;63191;39.566;2.654;2022-09-20T20:54:18;7.40;;;1.70;;
74660;SDS011;63191;39.566;2.654;2022-09-20T20:56:45;11.70;;;2.10;;
74660;SDS011;63191;39.566;2.654;2022-09-20T20:59:11;8.50;;;1.60;;
74660;SDS011;63191;39.566;2.654;2022-09-20T21:01:39;8.10;;;1.60;;
74660;SDS011;63191;39.566;2.654;2022-09-20T21:04:11;7.50;;;1.80;;
74660;SDS011;63191;39.566;2.654;2022-09-20T21:06:38;7.20;;;2.00;;
74660;SDS011;63191;39.566;2.654;2022-09-20T21:09:06;7.60;;;1.90;;
74660;SDS011;63191;39.566;2.654;2022-09-20T21:11:35;8.40;;;2.10;;
74660;SDS011;63191;39.566;2.654;2022-09-20T21:14:04;7.90;;;1.60;;
74660;SDS011;63191;39.566;2.654;2022-09-20T21:16:36;6.90;;;1.60;;
74660;SDS011;63191;39.566;2.654;2022-09-20T21:19:05;9.60;;;2.20;;